Time;durP1;ratioP1;P1;durP2;ratioP2;P2;SDS_P1;SDS_P2;PMS_P1;PMS_P2;Temp;Humidity;BMP_temperature;BMP_pressure;BME280_temperature;BME280_humidity;BME280_pressure;Samples;Min_cycle;Max_cycle;Signal;HPM_P1;HPM_P2
2022/08/23 00:02:16;;;;;;;5.93;3.90;;;;;;;22.63;99.14;98551.41;4931831;29;20226;-57
2022/08/23 00:04:45;;;;;;;6.15;4.18;;;;;;;22.64;98.96;98549.59;4931876;29;20231;-58
2022/08/23 00:07:16;;;;;;;5.70;3.83;;;;;;;22.66;98.93;98550.19;4931926;29;20258;-57
2022/08/23 00:09:42;;;;;;;6.10;4.05;;;;;;;22.76;98.56;98551.38;4931894;29;20234;-57
2022/08/23 00:12:13;;;;;;;5.63;3.75;;;;;;;22.72;98.12;98547.59;4931697;29;20203;-57
2022/08/23 00:14:44;;;;;;;5.47;3.83;;;;;;;22.66;98.73;98542.34;4931745;29;20734;-57
2022/08/23 00:17:13;;;;;;;4.90;3.65;;;;;;;22.65;98.98;98551.97;4931765;29;20214;-57
2022/08/23 00:19:41;;;;;;;7.60;4.03;;;;;;;22.63;99.51;98548.81;4931864;29;20204;-57
2022/08/23 00:22:09;;;;;;;5.53;3.92;;;;;;;22.57;99.80;98553.00;4931751;29;20196;-57
2022/08/23 00:24:36;;;;;;;5.35;3.63;;;;;;;22.67;99.63;98555.19;4932653;29;20204;-57
2022/08/23 00:27:06;;;;;;;5.00;3.85;;;;;;;22.71;98.62;98561.59;4935559;29;20204;-57
2022/08/23 00:29:38;;;;;;;6.35;3.92;;;;;;;22.69;99.31;98563.63;4935532;29;20210;-57
2022/08/23 00:32:07;;;;;;;6.50;4.38;;;;;;;22.63;99.63;98554.00;4935449;29;20207;-57
2022/08/23 00:34:36;;;;;;;6.40;3.83;;;;;;;22.59;99.59;98553.59;4935013;29;20426;-64
2022/08/23 00:37:04;;;;;;;7.25;3.97;;;;;;;22.57;99.65;98549.56;4935288;29;20206;-65
2022/08/23 00:39:31;;;;;;;6.63;3.88;;;;;;;22.47;99.76;98549.19;4935162;29;20215;-64
2022/08/23 00:41:59;;;;;;;7.63;3.78;;;;;;;22.47;99.47;98542.19;4935421;29;20215;-64
2022/08/23 00:50:14;;;;;;;6.43;3.90;;;;;;;22.36;99.63;98533.16;4935071;29;20218;-65
2022/08/23 00:52:47;;;;;;;6.78;3.72;;;;;;;22.33;99.37;98528.34;4935137;29;20203;-64
2022/08/23 00:55:16;;;;;;;6.63;3.75;;;;;;;22.31;99.55;98530.38;4934976;29;20227;-64
2022/08/23 00:57:43;;;;;;;4.80;3.28;;;;;;;22.32;99.41;98531.97;4934904;29;20239;-57
2022/08/23 01:00:11;;;;;;;4.50;3.60;;;;;;;22.33;99.82;98536.16;4934723;29;20223;-57
2022/08/23 01:02:38;;;;;;;8.05;3.80;;;;;;;22.25;99.93;98540.75;4934739;29;20210;-57
2022/08/23 01:05:08;;;;;;;4.83;3.40;;;;;;;22.19;100.00;98547.56;4934618;29;20670;-57
2022/08/23 01:07:45;;;;;;;6.17;3.40;;;;;;;22.17;100.00;98554.78;4934823;29;20218;-57
2022/08/23 01:10:19;;;;;;;6.97;3.70;;;;;;;22.14;100.00;98550.75;4934881;29;20218;-57
2022/08/23 01:12:52;;;;;;;7.25;3.45;;;;;;;22.17;100.00;98549.59;4934433;29;20222;-58
2022/08/23 01:15:23;;;;;;;5.43;3.60;;;;;;;22.19;99.99;98557.19;4934592;29;20222;-57
2022/08/23 01:17:54;;;;;;;6.80;4.00;;;;;;;22.13;100.00;98553.53;4934510;29;20597;-58
2022/08/23 01:20:25;;;;;;;7.13;3.10;;;;;;;22.09;100.00;98557.56;4934453;29;20234;-57
2022/08/23 01:22:57;;;;;;;4.78;3.13;;;;;;;22.09;100.00;98560.94;4934607;29;20199;-57
2022/08/23 01:25:28;;;;;;;4.87;3.43;;;;;;;22.01;100.00;98565.53;4934470;29;20259;-57
2022/08/23 01:27:56;;;;;;;6.93;3.35;;;;;;;21.97;100.00;98570.34;4934336;29;20203;-57
2022/08/23 01:30:27;;;;;;;6.13;3.50;;;;;;;21.93;100.00;98575.16;4934446;29;20680;-57
2022/08/23 01:32:57;;;;;;;4.73;3.37;;;;;;;21.88;100.00;98569.72;4934422;29;20282;-65
2022/08/23 01:35:33;;;;;;;7.07;3.40;;;;;;;21.87;100.00;98562.88;4933797;29;20226;-65
2022/08/23 01:38:00;;;;;;;4.57;3.37;;;;;;;21.81;100.00;98555.88;4933579;29;20210;-65
2022/08/23 01:40:30;;;;;;;6.87;3.70;;;;;;;21.82;100.00;98551.50;4934300;29;20219;-64
2022/08/23 01:42:57;;;;;;;7.27;3.53;;;;;;;21.79;100.00;98557.09;4933935;29;20207;-58
2022/08/23 01:45:24;;;;;;;5.23;3.53;;;;;;;21.81;100.00;98565.47;4934255;29;20231;-57
2022/08/23 01:47:51;;;;;;;5.07;3.50;;;;;;;21.76;100.00;98553.06;4934074;29;20678;-58
2022/08/23 01:50:18;;;;;;;5.20;3.63;;;;;;;21.74;100.00;98554.25;4933892;29;20236;-65
2022/08/23 01:52:45;;;;;;;5.50;3.53;;;;;;;21.69;100.00;98552.25;4933882;29;20205;-65
2022/08/23 01:55:11;;;;;;;5.67;3.80;;;;;;;21.72;100.00;98561.47;4933819;29;20238;-65
2022/08/23 01:57:41;;;;;;;5.63;3.53;;;;;;;21.66;100.00;98563.03;4933846;29;20207;-64
2022/08/23 02:00:10;;;;;;;5.80;3.23;;;;;;;21.61;100.00;98557.59;4933816;29;20610;-64
2022/08/23 02:02:37;;;;;;;6.10;3.83;;;;;;;21.56;100.00;98565.22;4933632;29;20584;-64
2022/08/23 02:05:05;;;;;;;5.17;3.50;;;;;;;21.57;100.00;98559.00;4933472;29;20716;-64
2022/08/23 02:07:32;;;;;;;6.23;3.70;;;;;;;21.54;100.00;98559.41;4933713;29;20210;-64
2022/08/23 02:09:58;;;;;;;6.57;3.73;;;;;;;21.48;100.00;98561.78;4933631;29;20230;-65
2022/08/23 02:12:25;;;;;;;4.43;3.40;;;;;;;21.44;100.00;98554.56;4933674;29;20277;-64
2022/08/23 02:14:54;;;;;;;4.80;3.07;;;;;;;21.41;100.00;98563.56;4933505;29;20241;-64
2022/08/23 02:17:21;;;;;;;6.23;3.73;;;;;;;21.39;100.00;98568.13;4933220;29;20696;-64
2022/08/23 02:19:47;;;;;;;5.70;3.60;;;;;;;21.38;100.00;98569.13;4933210;29;20226;-64
2022/08/23 02:22:14;;;;;;;6.43;3.93;;;;;;;21.33;100.00;98566.28;4933223;29;20207;-65
2022/08/23 02:24:43;;;;;;;7.00;3.93;;;;;;;21.31;100.00;98570.06;4933389;29;20206;-65
2022/08/23 02:27:12;;;;;;;5.53;3.43;;;;;;;21.27;100.00;98572.25;4933083;29;20296;-65
2022/08/23 02:29:39;;;;;;;5.10;3.50;;;;;;;21.27;100.00;98569.66;4933092;29;20216;-65
2022/08/23 02:32:08;;;;;;;5.77;3.30;;;;;;;21.17;100.00;98559.59;4933037;29;20216;-64
2022/08/23 02:34:35;;;;;;;6.40;3.50;;;;;;;21.17;100.00;98563.97;4932900;29;20245;-64
2022/08/23 02:37:02;;;;;;;4.77;3.00;;;;;;;21.17;100.00;98572.56;4933118;29;20211;-63
2022/08/23 02:39:29;;;;;;;4.77;3.40;;;;;;;21.12;100.00;98561.16;4932945;29;20673;-64
2022/08/23 02:41:56;;;;;;;5.23;3.57;;;;;;;21.02;100.00;98567.50;4933228;29;20210;-64
2022/08/23 02:44:23;;;;;;;6.80;3.30;;;;;;;20.99;100.00;98567.09;4932871;29;20583;-64
2022/08/23 02:46:50;;;;;;;4.23;3.10;;;;;;;20.93;100.00;98584.22;4932619;29;20215;-65
2022/08/23 02:49:20;;;;;;;5.80;3.23;;;;;;;20.90;100.00;98589.81;4932729;29;20217;-64
2022/08/23 02:51:47;;;;;;;5.83;3.30;;;;;;;20.82;100.00;98587.34;4932688;29;20249;-64
2022/08/23 02:54:14;;;;;;;4.77;3.07;;;;;;;20.81;100.00;98590.94;4932670;29;20241;-65
2022/08/23 02:56:41;;;;;;;5.30;3.60;;;;;;;20.77;100.00;98593.13;4932591;29;20223;-64
2022/08/23 02:59:08;;;;;;;5.93;3.77;;;;;;;20.73;100.00;98589.28;4932635;29;20593;-64
2022/08/23 03:01:37;;;;;;;6.93;3.73;;;;;;;20.74;100.00;98596.09;4932881;29;20222;-64
2022/08/23 03:04:09;;;;;;;5.67;3.93;;;;;;;20.67;100.00;98590.03;4932496;29;20218;-65
2022/08/23 03:06:38;;;;;;;5.27;3.63;;;;;;;20.66;100.00;98592.84;4932291;29;20234;-64
2022/08/23 03:09:06;;;;;;;8.17;3.93;;;;;;;20.63;100.00;98599.22;4932820;29;20569;-65
2022/08/23 03:11:33;;;;;;;6.30;3.47;;;;;;;20.56;100.00;98608.72;4932376;29;20728;-64
2022/08/23 03:14:01;;;;;;;4.80;3.13;;;;;;;20.56;100.00;98613.91;4932193;29;20243;-64
2022/08/23 03:16:28;;;;;;;7.57;3.73;;;;;;;20.52;100.00;98623.88;4932289;29;20291;-64
2022/08/23 03:18:55;;;;;;;10.60;3.37;;;;;;;20.49;100.00;98624.22;4932474;29;20216;-64
2022/08/23 03:21:22;;;;;;;4.20;3.30;;;;;;;20.53;100.00;98625.47;4932468;29;20235;-64
2022/08/23 03:23:50;;;;;;;5.50;3.47;;;;;;;20.55;100.00;98615.72;4932315;29;20221;-64
2022/08/23 03:26:17;;;;;;;5.23;3.30;;;;;;;20.56;100.00;98619.91;4932162;29;20654;-65
2022/08/23 03:28:45;;;;;;;5.33;3.43;;;;;;;20.54;100.00;98632.31;4932173;29;20207;-64
2022/08/23 03:31:14;;;;;;;6.93;3.70;;;;;;;20.53;100.00;98630.66;4931948;29;20230;-64
2022/08/23 03:33:41;;;;;;;5.33;3.43;;;;;;;20.53;100.00;98633.28;4932107;29;20204;-65
2022/08/23 03:36:10;;;;;;;5.80;3.60;;;;;;;20.55;100.00;98636.50;4932060;29;20224;-64
2022/08/23 03:38:39;;;;;;;5.73;3.67;;;;;;;20.61;100.00;98636.75;4932227;29;20239;-64
2022/08/23 03:41:08;;;;;;;5.33;3.60;;;;;;;20.62;100.00;98643.53;4931998;29;20261;-64
2022/08/23 03:43:35;;;;;;;7.50;3.83;;;;;;;20.64;100.00;98636.38;4932176;29;20686;-65
2022/08/23 03:46:02;;;;;;;6.23;3.50;;;;;;;20.61;100.00;98642.75;4931818;29;20740;-64
2022/08/23 03:48:29;;;;;;;5.83;3.70;;;;;;;20.63;100.00;98637.38;4931891;29;20220;-64
2022/08/23 03:50:56;;;;;;;5.87;3.23;;;;;;;20.61;100.00;98642.75;4932058;29;20255;-64
2022/08/23 03:53:24;;;;;;;7.30;3.70;;;;;;;20.59;100.00;98642.13;4931942;29;20201;-64
2022/08/23 03:55:55;;;;;;;4.87;3.17;;;;;;;20.56;100.00;98639.88;4932103;29;20243;-64
2022/08/23 03:58:24;;;;;;;7.93;3.67;;;;;;;20.56;100.00;98635.50;4932009;29;20210;-64
2022/08/23 04:00:51;;;;;;;6.27;3.77;;;;;;;20.52;100.00;98634.28;4935164;29;20309;-64
2022/08/23 04:03:18;;;;;;;6.03;3.60;;;;;;;20.57;100.00;98631.94;4935783;29;20255;-64
2022/08/23 04:05:45;;;;;;;5.67;3.67;;;;;;;20.56;100.00;98639.88;4936072;29;20734;-64
2022/08/23 04:08:12;;;;;;;5.77;3.63;;;;;;;20.52;100.00;98642.06;4935695;29;20216;-64
2022/08/23 04:10:39;;;;;;;5.83;3.93;;;;;;;20.53;100.00;98646.25;4935808;29;20609;-64
2022/08/23 04:13:07;;;;;;;7.37;3.97;;;;;;;20.49;100.00;98639.81;4935413;29;20226;-64
2022/08/23 04:15:36;;;;;;;5.57;3.70;;;;;;;20.48;100.00;98638.22;4935476;29;20327;-64
2022/08/23 04:18:03;;;;;;;4.97;3.50;;;;;;;20.49;100.00;98645.00;4935402;29;20207;-64
2022/08/23 04:20:30;;;;;;;5.90;3.70;;;;;;;20.50;100.00;98644.00;4935727;29;20218;-64
2022/08/23 04:22:58;;;;;;;5.17;3.40;;;;;;;20.48;100.00;98648.59;4935578;29;20222;-64
2022/08/23 04:25:25;;;;;;;5.00;3.63;;;;;;;20.47;100.00;98656.56;4935659;29;20226;-64
2022/08/23 04:27:53;;;;;;;8.20;4.13;;;;;;;20.47;100.00;98646.16;4935537;29;20745;-64
2022/08/23 04:30:20;;;;;;;7.37;3.93;;;;;;;20.44;100.00;98657.72;4935273;29;20225;-64
2022/08/23 04:32:48;;;;;;;6.27;3.67;;;;;;;20.41;100.00;98646.91;4935280;29;20217;-64
2022/08/23 04:35:16;;;;;;;7.00;4.30;;;;;;;20.46;100.00;98644.56;4935090;29;20233;-64
2022/08/23 04:37:44;;;;;;;7.13;3.60;;;;;;;20.48;100.00;98650.41;4935265;29;20687;-64
2022/08/23 04:42:56;;;;;;;6.30;3.53;;;;;;;20.51;100.00;98652.63;4935276;29;20695;-64
2022/08/23 04:45:23;;;;;;;6.17;4.20;;;;;;;20.55;100.00;98648.69;4935442;29;20234;-64
2022/08/23 04:47:52;;;;;;;6.70;3.80;;;;;;;20.58;100.00;98648.31;4934922;29;20238;-64
2022/08/23 04:50:19;;;;;;;7.33;3.90;;;;;;;20.68;100.00;98648.00;4935172;29;20224;-64
2022/08/23 04:52:46;;;;;;;6.70;3.97;;;;;;;20.72;100.00;98651.84;4934985;29;20211;-64
2022/08/23 04:55:13;;;;;;;7.87;4.47;;;;;;;20.80;100.00;98654.31;4934610;29;20233;-64
2022/08/23 04:57:41;;;;;;;6.87;4.10;;;;;;;20.88;100.00;98648.97;4934893;29;20205;-64
2022/08/23 05:00:11;;;;;;;7.83;4.10;;;;;;;21.00;100.00;98642.28;4935011;29;20231;-65
2022/08/23 05:02:38;;;;;;;9.13;4.63;;;;;;;21.08;100.00;98641.31;4935118;29;20240;-64
2022/08/23 05:05:07;;;;;;;9.23;4.67;;;;;;;21.31;100.00;98648.88;4934589;29;20278;-64
2022/08/23 05:07:34;;;;;;;8.63;4.47;;;;;;;21.43;100.00;98649.97;4935179;29;20385;-64
2022/08/23 05:10:01;;;;;;;8.90;4.43;;;;;;;21.59;100.00;98645.47;4934125;29;20220;-65
2022/08/23 05:12:29;;;;;;;8.10;5.10;;;;;;;21.71;100.00;98654.34;4934933;29;20276;-64
2022/08/23 05:14:55;;;;;;;5.93;4.40;;;;;;;21.79;100.00;98651.56;4934529;29;20241;-64
2022/08/23 05:17:22;;;;;;;6.80;4.40;;;;;;;21.79;100.00;98651.56;4934585;29;20206;-65
2022/08/23 05:19:49;;;;;;;7.03;4.50;;;;;;;21.77;100.00;98650.94;4934471;29;20704;-64
2022/08/23 05:22:17;;;;;;;6.67;3.63;;;;;;;21.78;100.00;98649.94;4934628;29;20213;-65
2022/08/23 05:24:44;;;;;;;7.93;4.63;;;;;;;21.83;100.00;98655.38;4934393;29;20222;-65
2022/08/23 05:27:11;;;;;;;7.03;4.20;;;;;;;21.90;100.00;98661.44;4934369;29;20222;-65
2022/08/23 05:29:38;;;;;;;7.80;4.47;;;;;;;21.97;100.00;98658.06;4934115;29;20218;-65
2022/08/23 05:32:06;;;;;;;6.03;4.07;;;;;;;22.15;100.00;98660.91;4934477;29;20211;-65
2022/08/23 05:34:32;;;;;;;6.83;4.13;;;;;;;22.41;100.00;98675.03;4933926;29;20758;-65
2022/08/23 05:36:59;;;;;;;6.93;4.57;;;;;;;22.66;100.00;98668.28;4934213;29;20206;-65
2022/08/23 05:39:28;;;;;;;5.70;4.03;;;;;;;22.86;97.80;98675.28;4934005;29;20696;-65
2022/08/23 05:41:55;;;;;;;5.57;3.67;;;;;;;23.14;96.76;98669.91;4932887;29;20207;-65
2022/08/23 05:44:24;;;;;;;9.30;4.22;;;;;;;23.31;95.44;98675.50;4934272;29;20211;-65
2022/08/23 05:46:51;;;;;;;8.07;3.75;;;;;;;23.32;93.95;98679.69;4934070;29;20673;-65
2022/08/23 05:49:18;;;;;;;6.00;3.50;;;;;;;23.22;94.58;98683.53;4933869;29;20212;-65
2022/08/23 05:51:45;;;;;;;6.88;3.75;;;;;;;23.13;96.10;98679.53;4933834;29;20861;-65
2022/08/23 05:54:12;;;;;;;5.93;3.53;;;;;;;23.18;97.81;98681.50;4933718;29;20270;-66
2022/08/23 05:56:42;;;;;;;5.82;3.95;;;;;;;23.32;96.51;98682.31;4933806;29;20724;-65
2022/08/23 05:59:11;;;;;;;6.53;4.15;;;;;;;23.47;94.54;98680.28;4933958;29;20243;-65
2022/08/23 06:01:39;;;;;;;7.32;3.95;;;;;;;23.58;95.42;98677.03;4933787;29;20230;-66
2022/08/23 06:04:11;;;;;;;6.40;4.00;;;;;;;23.77;95.11;98674.63;4933618;29;20211;-65
2022/08/23 06:06:39;;;;;;;6.70;3.55;;;;;;;24.08;93.69;98672.06;4934093;29;20617;-65
2022/08/23 06:09:09;;;;;;;6.13;3.90;;;;;;;24.15;90.79;98677.28;4933684;29;20208;-66
2022/08/23 06:11:36;;;;;;;7.38;4.25;;;;;;;24.43;92.29;98687.38;4933444;29;20716;-65
2022/08/23 06:14:08;;;;;;;5.75;3.90;;;;;;;24.71;92.98;98691.44;4933705;29;20212;-66
2022/08/23 06:16:37;;;;;;;8.45;4.40;;;;;;;24.69;88.36;98698.69;4933364;29;20302;-66
2022/08/23 06:19:04;;;;;;;6.45;4.38;;;;;;;24.81;88.70;98704.84;4933405;29;20214;-66
2022/08/23 06:21:33;;;;;;;5.55;4.05;;;;;;;25.03;89.39;98706.09;4933172;29;20219;-66
2022/08/23 06:24:00;;;;;;;5.72;3.97;;;;;;;25.25;88.23;98708.38;4932991;29;20207;-66
2022/08/23 06:26:31;;;;;;;6.25;4.10;;;;;;;25.35;86.02;98703.44;4933176;29;20232;-66
2022/08/23 06:29:01;;;;;;;6.15;3.63;;;;;;;25.52;86.58;98704.47;4933292;29;20200;-66
2022/08/23 06:31:45;;;;;;;4.93;3.70;;;;;;;25.51;85.66;98705.50;4933146;29;20232;-66
2022/08/23 06:34:17;;;;;;;7.22;3.63;;;;;;;25.72;84.56;98706.88;4933035;29;20673;-58
2022/08/23 06:36:45;;;;;;;5.65;3.58;;;;;;;25.77;85.27;98710.66;4932915;29;20322;-58
2022/08/23 06:39:12;;;;;;;5.25;3.70;;;;;;;25.87;83.27;98724.88;4932938;29;20242;-58
2022/08/23 06:41:39;;;;;;;5.07;3.75;;;;;;;26.03;82.18;98726.09;4933500;29;20696;-58
2022/08/23 06:44:07;;;;;;;8.60;4.00;;;;;;;26.09;80.50;98740.13;4933306;29;20217;-58
2022/08/23 06:46:35;;;;;;;6.85;3.72;;;;;;;26.41;84.39;98738.94;4932843;29;20231;-58
2022/08/23 06:49:04;;;;;;;5.28;3.70;;;;;;;26.45;80.17;98741.13;4932886;29;20215;-58
2022/08/23 06:51:33;;;;;;;6.10;3.90;;;;;;;26.67;80.91;98747.47;4932801;29;20663;-58
2022/08/23 06:54:02;;;;;;;6.57;3.65;;;;;;;26.72;78.78;98750.22;4932522;29;20227;-58
2022/08/23 06:56:30;;;;;;;4.55;3.35;;;;;;;26.87;79.83;98750.59;4932642;29;20246;-58
2022/08/23 06:58:58;;;;;;;4.30;3.33;;;;;;;27.06;79.66;98753.97;4932700;29;20203;-59
2022/08/23 07:01:34;;;;;;;4.82;3.30;;;;;;;27.02;76.28;98752.81;4932673;29;20329;-58
2022/08/23 07:04:03;;;;;;;4.97;3.33;;;;;;;27.12;77.64;98760.13;4932553;29;20203;-58
2022/08/23 07:06:31;;;;;;;4.35;3.53;;;;;;;27.13;76.36;98766.97;4932683;29;20629;-58
2022/08/23 07:08:58;;;;;;;5.95;3.40;;;;;;;27.22;77.02;98763.00;4932346;29;20302;-58
2022/08/23 07:11:30;;;;;;;4.53;3.38;;;;;;;27.23;78.35;98762.00;4932618;29;20243;-58
2022/08/23 07:13:57;;;;;;;4.78;3.38;;;;;;;27.25;75.78;98769.63;4932529;29;20204;-58
2022/08/23 07:16:25;;;;;;;5.18;3.05;;;;;;;27.46;77.17;98771.72;4932625;29;20235;-58
2022/08/23 07:18:54;;;;;;;4.68;3.20;;;;;;;27.78;75.09;98771.38;4932386;29;20266;-58
2022/08/23 07:21:22;;;;;;;4.85;3.17;;;;;;;27.83;72.54;98776.75;4932479;29;20223;-58
2022/08/23 07:23:49;;;;;;;4.97;3.30;;;;;;;27.88;75.27;98781.31;4932582;29;20231;-58
2022/08/23 07:26:17;;;;;;;4.38;3.30;;;;;;;27.94;76.35;98783.03;4932362;29;20574;-58
2022/08/23 07:28:45;;;;;;;5.95;3.28;;;;;;;27.95;73.72;98784.59;4932372;29;20214;-58
2022/08/23 07:31:16;;;;;;;4.68;3.17;;;;;;;28.11;73.09;98777.84;4932057;29;20219;-58
2022/08/23 07:33:44;;;;;;;5.28;3.55;;;;;;;28.08;72.51;98773.06;4932200;29;20211;-59
2022/08/23 07:36:15;;;;;;;4.65;3.20;;;;;;;28.08;73.11;98762.53;4931787;29;20245;-58
2022/08/23 07:38:43;;;;;;;5.25;3.33;;;;;;;28.09;73.33;98775.44;4932174;29;20235;-58
2022/08/23 07:41:10;;;;;;;4.63;3.40;;;;;;;28.08;73.14;98779.09;4932158;29;20238;-58
2022/08/23 07:43:37;;;;;;;4.95;3.70;;;;;;;27.99;72.78;98775.25;4932364;29;20214;-58
2022/08/23 07:46:05;;;;;;;5.68;3.78;;;;;;;27.99;73.75;98777.88;4932379;29;20216;-58
2022/08/23 07:48:33;;;;;;;4.25;3.30;;;;;;;27.81;72.06;98775.38;4932169;29;20203;-58
2022/08/23 07:51:02;;;;;;;4.20;3.40;;;;;;;28.03;73.36;98770.31;4932006;29;20664;-58
2022/08/23 07:53:29;;;;;;;5.18;3.80;;;;;;;27.99;71.76;98770.00;4932143;29;20216;-58
2022/08/23 07:55:58;;;;;;;4.88;3.47;;;;;;;27.95;73.76;98771.47;4932134;29;20235;-58
2022/08/23 07:58:25;;;;;;;4.25;3.47;;;;;;;28.07;74.39;98767.00;4932025;29;20212;-58
2022/08/23 08:00:53;;;;;;;6.50;4.10;;;;;;;27.79;72.32;98772.19;4932232;29;20223;-58
2022/08/23 08:03:20;;;;;;;5.93;3.85;;;;;;;27.81;74.46;98775.38;4931924;29;20203;-58
2022/08/23 08:05:47;;;;;;;5.55;3.60;;;;;;;27.92;76.01;98774.56;4931820;29;20227;-58
2022/08/23 08:08:14;;;;;;;9.18;4.18;;;;;;;27.71;73.03;98779.34;4931917;29;20208;-58
2022/08/23 08:10:43;;;;;;;6.72;3.65;;;;;;;27.44;74.99;98783.47;4932062;29;20230;-58
2022/08/23 08:13:11;;;;;;;7.20;4.57;;;;;;;27.39;74.78;98785.97;4931744;29;20211;-58
2022/08/23 08:15:41;;;;;;;6.40;4.43;;;;;;;27.03;75.89;98783.28;4931827;29;20231;-58
2022/08/23 08:18:09;;;;;;;8.05;4.22;;;;;;;27.04;75.40;98784.88;4931889;29;20203;-58
2022/08/23 08:20:35;;;;;;;6.40;4.45;;;;;;;26.99;76.49;98786.56;4931945;29;20226;-58
2022/08/23 08:23:04;;;;;;;5.55;4.15;;;;;;;27.07;77.07;98786.25;4931674;29;20207;-58
2022/08/23 08:25:33;;;;;;;6.65;4.18;;;;;;;27.07;75.67;98788.88;4931833;29;20278;-58
2022/08/23 08:28:00;;;;;;;6.00;4.25;;;;;;;26.91;76.29;98789.50;4931596;29;20334;-58
2022/08/23 08:30:28;;;;;;;5.53;4.13;;;;;;;26.75;76.52;98791.75;4931971;29;20219;-58
2022/08/23 08:32:55;;;;;;;7.38;4.30;;;;;;;26.65;77.85;98796.75;4931837;29;20208;-58
2022/08/23 08:35:23;;;;;;;6.78;4.35;;;;;;;26.65;79.21;98796.75;4931849;29;20249;-59
2022/08/23 08:37:49;;;;;;;6.10;3.90;;;;;;;26.64;79.06;98795.13;4931902;29;20569;-58
2022/08/23 08:40:24;;;;;;;7.97;4.00;;;;;;;26.55;79.24;98801.69;4931450;29;20231;-58
2022/08/23 08:43:12;;;;;;;6.93;4.50;;;;;;;26.43;78.94;98799.00;4931705;29;20211;-58
2022/08/23 08:45:49;;;;;;;6.50;4.45;;;;;;;26.63;81.25;98804.81;4932739;29;20227;-58
2022/08/23 08:48:22;;;;;;;4.82;3.53;;;;;;;26.68;79.98;98801.53;4935119;29;20224;-58
2022/08/23 08:50:54;;;;;;;5.93;4.00;;;;;;;26.79;77.91;98810.47;4935512;29;20230;-58
2022/08/23 08:53:29;;;;;;;5.63;3.80;;;;;;;26.69;76.89;98803.13;4934919;29;20207;-58
2022/08/23 08:56:01;;;;;;;6.25;3.88;;;;;;;26.77;76.88;98802.81;4935131;29;20231;-58
2022/08/23 08:58:33;;;;;;;7.25;3.58;;;;;;;26.74;77.47;98805.91;4934912;29;20208;-58
2022/08/23 09:01:01;;;;;;;5.88;4.55;;;;;;;26.87;76.64;98800.44;4934729;29;20234;-58
2022/08/23 09:03:34;;;;;;;5.45;3.40;;;;;;;26.76;76.54;98798.63;4934773;29;20208;-58
2022/08/23 09:06:09;;;;;;;5.03;3.78;;;;;;;26.53;74.30;98804.56;4934810;29;20618;-58
2022/08/23 09:08:47;;;;;;;5.35;3.60;;;;;;;26.74;76.45;98790.16;4934661;29;20203;-58
2022/08/23 09:11:27;;;;;;;5.22;3.28;;;;;;;26.92;77.83;98786.66;4934522;29;20227;-58
2022/08/23 09:14:15;;;;;;;5.25;3.80;;;;;;;27.28;71.77;98793.59;4934637;29;20207;-57
2022/08/23 09:16:51;;;;;;;4.85;3.25;;;;;;;27.22;70.15;98789.25;4934786;29;20239;-57
2022/08/23 09:19:20;;;;;;;5.50;2.80;;;;;;;27.72;71.58;98795.91;4934537;29;20223;-58
2022/08/23 09:21:49;;;;;;;3.90;2.60;;;;;;;27.91;67.53;98799.25;4934830;29;20228;-58
2022/08/23 09:24:16;;;;;;;3.50;2.42;;;;;;;27.95;64.11;98805.63;4934515;29;20215;-58
2022/08/23 09:26:43;;;;;;;4.90;2.65;;;;;;;28.24;65.91;98809.13;4934432;29;20220;-58
2022/08/23 09:29:19;;;;;;;4.35;2.83;;;;;;;28.29;64.17;98811.06;4934186;29;20203;-58
2022/08/23 09:31:51;;;;;;;5.15;3.03;;;;;;;28.43;67.66;98815.06;4934425;29;20227;-58
2022/08/23 09:34:21;;;;;;;6.15;3.10;;;;;;;28.66;64.26;98822.84;4934225;29;20259;-58
2022/08/23 09:36:48;;;;;;;4.22;3.58;;;;;;;28.80;67.24;98817.31;4934029;29;20610;-57
2022/08/23 09:39:29;;;;;;;4.82;3.63;;;;;;;28.94;63.64;98807.28;4934127;29;20207;-58
2022/08/23 09:41:56;;;;;;;4.00;2.70;;;;;;;29.14;60.99;98809.50;4934806;29;20203;-65
2022/08/23 09:44:40;;;;;;;4.45;3.10;;;;;;;29.23;65.71;98805.41;4934086;29;20220;-66
2022/08/23 09:47:11;;;;;;;4.60;3.50;;;;;;;29.26;65.32;98799.66;4934209;29;20203;-66
2022/08/23 09:49:40;;;;;;;4.30;2.97;;;;;;;29.63;66.03;98797.38;4934012;29;20204;-66
2022/08/23 09:52:22;;;;;;;5.00;3.17;;;;;;;29.81;63.75;98796.28;4934034;29;20200;-66
2022/08/23 09:54:59;;;;;;;4.57;3.33;;;;;;;30.01;61.14;98791.28;4933865;29;20713;-65
2022/08/23 09:57:29;;;;;;;5.47;3.28;;;;;;;30.11;58.87;98795.09;4932942;29;20234;-65
2022/08/23 10:00:00;;;;;;;4.88;3.25;;;;;;;30.39;57.45;98794.91;4933898;29;20219;-65
2022/08/23 10:02:32;;;;;;;5.40;3.20;;;;;;;30.78;62.65;98797.44;4933792;29;20195;-66
2022/08/23 10:05:01;;;;;;;5.38;3.22;;;;;;;31.11;58.00;98791.13;4933668;29;20231;-58
2022/08/23 10:07:33;;;;;;;4.97;3.45;;;;;;;30.95;55.13;98785.97;4933656;29;20208;-58
2022/08/23 10:10:31;;;;;;;4.93;3.65;;;;;;;30.77;56.97;98787.13;4933640;29;20823;-58
2022/08/23 10:12:58;;;;;;;4.25;3.33;;;;;;;30.64;57.74;98777.78;4911200;29;20219;-57
2022/08/23 10:15:40;;;;;;;5.03;3.25;;;;;;;31.20;56.63;98775.63;4933615;29;20223;-58
2022/08/23 10:18:18;;;;;;;4.15;3.17;;;;;;;31.35;54.70;98777.59;4933670;29;20208;-58
2022/08/23 10:20:52;;;;;;;4.65;3.55;;;;;;;31.58;56.44;98787.00;4933311;29;20215;-58
2022/08/23 10:23:28;;;;;;;3.20;2.42;;;;;;;31.61;54.49;98786.47;4933315;29;20211;-58
2022/08/23 10:25:58;;;;;;;3.72;2.90;;;;;;;31.74;53.02;98786.03;4933859;29;20329;-66
2022/08/23 10:31:34;;;;;;;3.03;2.72;;;;;;;31.71;58.77;98797.13;4933302;29;20298;-66
2022/08/23 10:34:23;;;;;;;4.05;3.40;;;;;;;31.71;54.44;98797.13;4933298;29;20207;-65
2022/08/23 10:37:05;;;;;;;3.85;2.75;;;;;;;31.55;52.71;98798.06;4933067;29;20731;-58
2022/08/23 10:39:32;;;;;;;4.45;2.90;;;;;;;31.17;56.72;98804.38;4933099;29;20210;-58
2022/08/23 10:42:05;;;;;;;5.70;2.92;;;;;;;31.47;52.93;98811.75;4933144;29;20195;-58
2022/08/23 10:44:40;;;;;;;3.05;2.75;;;;;;;31.49;52.01;98809.66;4932963;29;20200;-58
2022/08/23 10:47:23;;;;;;;3.80;2.53;;;;;;;31.52;51.79;98819.72;4933180;29;20485;-65
2022/08/23 10:49:53;;;;;;;4.28;2.70;;;;;;;31.53;52.92;98814.22;4933330;29;20671;-65
2022/08/23 10:52:24;;;;;;;3.92;2.22;;;;;;;31.71;52.59;98818.28;4932934;29;20240;-65
2022/08/23 10:55:05;;;;;;;2.72;1.98;;;;;;;31.48;49.19;98823.94;4932973;29;20485;-65
2022/08/23 10:57:35;;;;;;;2.88;2.00;;;;;;;31.42;50.80;98822.31;4932867;29;20235;-65
2022/08/23 11:00:05;;;;;;;2.47;2.10;;;;;;;31.32;52.20;98815.84;4932325;29;20234;-65
2022/08/23 11:02:52;;;;;;;3.20;2.60;;;;;;;31.09;51.35;98817.00;4933025;29;20219;-65
2022/08/23 11:05:25;;;;;;;2.47;2.10;;;;;;;31.50;50.88;98821.81;4932545;29;20227;-66
2022/08/23 11:07:59;;;;;;;2.60;2.33;;;;;;;31.47;49.88;98817.03;4932718;29;20210;-65
2022/08/23 11:10:31;;;;;;;2.83;2.45;;;;;;;31.30;52.88;98817.97;4932508;29;20238;-66
2022/08/23 11:13:00;;;;;;;2.42;2.17;;;;;;;31.29;52.55;98816.38;4932761;29;20223;-65
2022/08/23 11:15:44;;;;;;;3.22;2.40;;;;;;;31.23;52.48;98812.09;4932504;29;20222;-65
2022/08/23 11:18:32;;;;;;;2.55;2.25;;;;;;;31.22;51.50;98799.16;4931288;29;20231;-65
2022/08/23 11:21:09;;;;;;;3.95;2.47;;;;;;;30.99;51.16;98795.78;4932404;29;20258;-65
2022/08/23 11:23:46;;;;;;;4.28;2.60;;;;;;;31.06;54.46;98795.56;4932499;29;20211;-65
2022/08/23 11:27:04;;;;;;;4.18;2.03;;;;;;;31.06;53.21;98785.00;4932312;29;20238;-64
2022/08/23 11:29:39;;;;;;;4.28;2.47;;;;;;;31.04;52.56;98782.66;4932364;29;20207;-65
2022/08/23 11:32:26;;;;;;;4.25;2.20;;;;;;;31.38;55.61;98778.94;4932242;29;20207;-65
2022/08/23 11:35:04;;;;;;;3.83;2.72;;;;;;;31.35;54.80;98798.72;4931920;29;20231;-65
2022/08/23 11:37:55;;;;;;;2.65;2.08;;;;;;;31.12;50.82;98790.06;4932005;29;20687;-66
2022/08/23 11:40:59;;;;;;;2.95;2.33;;;;;;;31.34;53.00;98797.91;4932060;29;20255;-66
2022/08/23 11:43:30;;;;;;;3.65;2.55;;;;;;;31.08;52.51;98801.41;4891747;29;20784;-66
2022/08/23 11:46:20;;;;;;;3.20;2.63;;;;;;;30.79;54.56;98793.78;4891707;29;20718;-65
2022/08/23 11:48:55;;;;;;;3.70;2.38;;;;;;;30.58;54.33;98802.50;4918021;29;20269;-66
2022/08/23 11:51:30;;;;;;;2.80;2.42;;;;;;;30.42;54.53;98796.25;4932043;29;20222;-66
2022/08/23 11:54:30;;;;;;;3.00;2.53;;;;;;;30.52;53.79;98795.59;4931941;29;20284;-65
2022/08/23 11:57:10;;;;;;;2.80;2.50;;;;;;;29.83;56.85;98794.22;4931987;29;20239;-66